createdAt,value
2023-08-25T05:40:01.363Z,97969.00
2023-08-25T05:48:26.852Z,97959.00
2023-08-25T05:50:54.269Z,97975.00
2023-08-25T05:53:21.776Z,98003.00
2023-08-25T05:55:51.738Z,98013.00
2023-08-25T06:32:49.073Z,98272.00
2023-08-25T06:48:03.786Z,98268.00
2023-08-25T06:50:31.742Z,98273.00
2023-08-25T07:06:02.328Z,98328.00
2023-08-25T07:08:29.792Z,98327.00
2023-08-25T07:18:05.062Z,98289.00
2023-08-25T07:20:32.665Z,98311.00
2023-08-25T07:23:00.478Z,98339.00
2023-08-25T07:25:28.090Z,98346.00
2023-08-25T07:27:55.821Z,98355.00
2023-08-25T07:30:23.680Z,98352.00
2023-08-25T07:32:54.227Z,98335.00
2023-08-25T07:35:21.784Z,98319.00
2023-08-25T07:37:50.921Z,98301.00
2023-08-25T07:40:20.772Z,98300.00
2023-08-25T07:42:49.903Z,98290.00
2023-08-25T07:45:17.602Z,98284.00
2023-08-25T07:47:45.186Z,98261.00
2023-08-25T07:50:12.641Z,98274.00
2023-08-25T07:52:40.174Z,98264.00
2023-08-25T07:55:08.156Z,98269.00
2023-08-25T07:57:36.548Z,98271.00
2023-08-25T08:00:07.438Z,98274.00
2023-08-25T08:02:34.963Z,98283.00
2023-08-25T08:05:02.401Z,98271.00
2023-08-25T08:07:29.933Z,98267.00
2023-08-25T08:09:57.390Z,98271.00
2023-08-25T08:12:24.812Z,98275.00
2023-08-25T08:14:52.272Z,98273.00
2023-08-25T08:17:21.492Z,98274.00
2023-08-25T08:19:49.462Z,98288.00
2023-08-25T08:22:18.611Z,98295.00
2023-08-25T08:24:51.083Z,98308.00
2023-08-25T08:27:20.294Z,98307.00
2023-08-25T08:29:49.195Z,98299.00
2023-08-25T08:32:17.732Z,98298.00
2023-08-25T08:34:45.659Z,98300.00
2023-08-25T08:37:13.177Z,98300.00
2023-08-25T08:39:40.682Z,98300.00
2023-08-25T08:42:11.382Z,98324.00
2023-08-25T08:44:41.432Z,98333.00
2023-08-25T08:47:10.912Z,98328.00
2023-08-25T08:49:39.473Z,98315.00
2023-08-25T08:52:08.160Z,98332.00
2023-08-25T08:54:42.775Z,98334.00
2023-08-25T08:57:10.330Z,98343.00
2023-08-25T08:59:37.802Z,98350.00
2023-08-25T09:02:06.653Z,98349.00
2023-08-25T09:04:38.735Z,98344.00
2023-08-25T09:07:08.184Z,98323.00
2023-08-25T09:09:35.723Z,98333.00
2023-08-25T09:12:03.542Z,98335.00
2023-08-25T09:14:31.527Z,98348.00
2023-08-25T09:17:03.455Z,98360.00
2023-08-25T09:19:33.699Z,98352.00
2023-08-25T09:22:02.754Z,98366.00
2023-08-25T09:24:31.697Z,98378.00
2023-08-25T09:26:59.222Z,98377.00
2023-08-25T09:29:27.698Z,98358.00
2023-08-25T09:31:55.205Z,98365.00
2023-08-25T09:34:23.201Z,98373.00
2023-08-25T09:36:57.852Z,98374.00
2023-08-25T09:39:26.073Z,98369.00
2023-08-25T09:41:53.693Z,98370.00
2023-08-25T09:44:21.155Z,98368.00
2023-08-25T09:46:51.336Z,98381.00
2023-08-25T09:49:18.837Z,98374.00
2023-08-25T09:51:49.651Z,98377.00
2023-08-25T09:54:20.269Z,98378.00
2023-08-25T09:56:49.415Z,98367.00
2023-08-25T09:59:17.822Z,98376.00
2023-08-25T10:01:47.143Z,98353.00
2023-08-25T10:04:15.142Z,98367.00
2023-08-25T10:06:42.928Z,98367.00
2023-08-25T10:09:10.874Z,98366.00
2023-08-25T10:11:49.824Z,98375.00
2023-08-25T10:14:18.457Z,98373.00
2023-08-25T10:16:54.015Z,98372.00
2023-08-25T10:19:32.773Z,98365.00
2023-08-25T10:22:03.173Z,98383.00
2023-08-25T10:24:32.971Z,98373.00
2023-08-25T10:27:01.380Z,98369.00
2023-08-25T10:29:30.216Z,98371.00
2023-08-25T10:32:04.195Z,98362.00
2023-08-25T10:34:47.442Z,98370.00
2023-08-25T10:37:25.813Z,98359.00
2023-08-25T10:40:00.844Z,98362.00
2023-08-25T10:42:35.135Z,98363.00
2023-08-25T10:45:12.394Z,98355.00
2023-08-25T10:47:48.828Z,98347.00
2023-08-25T10:50:23.857Z,98328.00
2023-08-25T10:52:54.063Z,98326.00
2023-08-25T10:55:31.161Z,98310.00
2023-08-25T10:58:08.532Z,98296.00
2023-08-25T11:00:44.870Z,98275.00
2023-08-25T11:03:12.841Z,98258.00
2023-08-25T11:05:45.207Z,98255.00
2023-08-25T11:08:29.750Z,98228.00
2023-08-25T11:11:16.546Z,98223.00
2023-08-25T11:13:44.730Z,98222.00
2023-08-25T11:16:14.721Z,98200.00
2023-08-25T11:18:44.251Z,98184.00
2023-08-25T11:21:12.279Z,98183.00
2023-08-25T11:23:43.826Z,98168.00
2023-08-25T11:26:18.971Z,98161.00
2023-08-25T11:28:52.244Z,98150.00
2023-08-25T11:31:24.938Z,98138.00
2023-08-25T11:33:53.929Z,98115.00
2023-08-25T11:36:26.311Z,98085.00
2023-08-25T11:38:54.220Z,98045.00
2023-08-25T11:41:24.392Z,97997.00
2023-08-25T11:43:51.865Z,97953.00
2023-08-25T11:46:20.499Z,97971.00
2023-08-25T11:48:54.932Z,97965.00
2023-08-25T11:51:22.401Z,97957.00
2023-08-25T11:53:49.987Z,97973.00
2023-08-25T11:56:20.788Z,97973.00
2023-08-25T11:58:51.808Z,97977.00
2023-08-25T12:01:19.422Z,97973.00
2023-08-25T12:03:48.396Z,97967.00
2023-08-25T12:06:16.679Z,97977.00
2023-08-25T12:08:44.171Z,97972.00
2023-08-25T12:11:12.227Z,97975.00
2023-08-25T12:13:48.676Z,97983.00
2023-08-25T12:16:20.192Z,97975.00
2023-08-25T12:18:53.331Z,97984.00
2023-08-25T12:21:21.012Z,97984.00
2023-08-25T12:23:48.498Z,98006.00
2023-08-25T12:26:15.956Z,98002.00
2023-08-25T12:28:44.758Z,98004.00
2023-08-25T12:31:12.386Z,97986.00
2023-08-25T12:33:39.989Z,98002.00
2023-08-25T12:36:08.080Z,97994.00
2023-08-25T12:38:35.556Z,97985.00
2023-08-25T12:41:03.282Z,97997.00
2023-08-25T12:43:30.803Z,97987.00
2023-08-25T12:45:58.547Z,97982.00
2023-08-25T12:48:25.994Z,97953.00
2023-08-25T12:50:53.558Z,97966.00
2023-08-25T12:53:21.467Z,97883.00
2023-08-25T12:55:48.998Z,97882.00
2023-08-25T12:58:16.631Z,97924.00
2023-08-25T13:00:44.286Z,97959.00
2023-08-25T13:03:11.932Z,97979.00
2023-08-25T13:05:39.642Z,97972.00
2023-08-25T13:08:07.321Z,97986.00
2023-08-25T13:10:34.812Z,97960.00
2023-08-25T13:13:02.271Z,97962.00
2023-08-25T13:15:32.225Z,97973.00
2023-08-25T13:18:01.272Z,97978.00
2023-08-25T13:20:29.222Z,97999.00
2023-08-25T13:22:57.617Z,98001.00
2023-08-25T13:25:26.359Z,97996.00
2023-08-25T13:27:55.192Z,98021.00
2023-08-25T13:30:23.628Z,98030.00
2023-08-25T13:32:52.073Z,98033.00
2023-08-25T13:35:19.737Z,98039.00
2023-08-25T13:37:47.197Z,98025.00
2023-08-25T13:40:14.715Z,98051.00
2023-08-25T13:42:42.262Z,98062.00
2023-08-25T13:45:11.020Z,98021.00
2023-08-25T13:47:38.665Z,98066.00
2023-08-25T13:50:07.783Z,98043.00
2023-08-25T13:52:35.827Z,98047.00
2023-08-25T13:55:04.190Z,98041.00
2023-08-25T13:57:32.391Z,98034.00
2023-08-25T14:00:00.501Z,98036.00
2023-08-25T14:02:28.138Z,98033.00
2023-08-25T14:04:55.753Z,98045.00
2023-08-25T14:07:23.249Z,98003.00
2023-08-25T14:09:50.961Z,97992.00
2023-08-25T14:12:18.906Z,97986.00
2023-08-25T14:14:47.035Z,97911.00
2023-08-25T14:17:14.833Z,97967.00
2023-08-25T14:19:42.368Z,97969.00
2023-08-25T14:22:09.873Z,97983.00
2023-08-25T14:24:37.742Z,97949.00
2023-08-25T14:27:05.435Z,97956.00
2023-08-25T14:29:32.965Z,97949.00
2023-08-25T14:32:00.443Z,97952.00
2023-08-25T14:34:30.218Z,97948.00
2023-08-25T14:36:57.859Z,97923.00
2023-08-25T14:39:25.374Z,97920.00
2023-08-25T14:41:58.249Z,97918.00
2023-08-25T14:44:26.379Z,97903.00
2023-08-25T14:46:54.025Z,97917.00
2023-08-25T14:49:21.611Z,97896.00
2023-08-25T14:51:49.164Z,97926.00
2023-08-25T14:54:16.809Z,97939.00
2023-08-25T14:56:44.294Z,97882.00
2023-08-25T14:59:11.960Z,97884.00
2023-08-25T15:01:39.636Z,97892.00
2023-08-25T15:04:07.640Z,97903.00
2023-08-25T15:06:35.218Z,97900.00
2023-08-25T15:09:02.748Z,97924.00
2023-08-25T15:11:30.291Z,97932.00
2023-08-25T15:13:57.988Z,97931.00
2023-08-25T15:16:25.602Z,97941.00
2023-08-25T15:18:53.192Z,97950.00
2023-08-25T15:21:20.775Z,97917.00
2023-08-25T15:23:49.533Z,97986.00
2023-08-25T15:26:17.310Z,97928.00
2023-08-25T15:28:44.813Z,97933.00
2023-08-25T15:31:14.460Z,97971.00
2023-08-25T15:33:42.875Z,97951.00
2023-08-25T15:36:13.450Z,97955.00
2023-08-25T15:38:41.377Z,97975.00
2023-08-25T15:41:13.959Z,97936.00
2023-08-25T15:43:42.326Z,97931.00
2023-08-25T15:46:10.275Z,97920.00
2023-08-25T15:48:37.928Z,97932.00
2023-08-25T15:51:06.619Z,97928.00
2023-08-25T15:53:34.117Z,97901.00
2023-08-25T15:56:02.279Z,97919.00
2023-08-25T15:58:29.832Z,97958.00
2023-08-25T16:01:02.963Z,97957.00
2023-08-25T16:03:31.384Z,97944.00
2023-08-25T16:06:06.597Z,97928.00
2023-08-25T16:08:34.501Z,97925.00
2023-08-25T16:11:11.330Z,97967.00
2023-08-25T16:13:39.737Z,97907.00
2023-08-25T16:16:07.573Z,97914.00
2023-08-25T16:18:36.435Z,97900.00
2023-08-25T16:21:06.603Z,97872.00
2023-08-25T16:23:37.183Z,97950.00
2023-08-25T16:26:05.726Z,97918.00
2023-08-25T16:28:34.393Z,97874.00
2023-08-25T16:31:05.590Z,97910.00
2023-08-25T16:33:37.024Z,97908.00
2023-08-25T16:36:05.591Z,97917.00
2023-08-25T16:38:33.806Z,97950.00
2023-08-25T16:41:01.301Z,97966.00
2023-08-25T16:43:28.857Z,97955.00
2023-08-25T16:45:56.334Z,97940.00
2023-08-25T16:48:24.121Z,97953.00
2023-08-25T16:50:52.214Z,97949.00
2023-08-25T16:53:20.884Z,97959.00
2023-08-25T16:55:48.406Z,97952.00
2023-08-25T16:58:15.964Z,97951.00
2023-08-25T17:00:44.721Z,97951.00
2023-08-25T17:03:12.626Z,97942.00
2023-08-25T17:05:40.189Z,97948.00
2023-08-25T17:08:09.514Z,97909.00
2023-08-25T17:10:37.665Z,97957.00
2023-08-25T17:13:05.450Z,97936.00
2023-08-25T17:15:38.290Z,97918.00
2023-08-25T17:18:06.624Z,97937.00
2023-08-25T17:20:34.296Z,97947.00
2023-08-25T17:23:01.965Z,97937.00
2023-08-25T17:25:30.558Z,97926.00
2023-08-25T17:27:58.679Z,97949.00
2023-08-25T17:30:26.223Z,97947.00
2023-08-25T17:32:55.337Z,97939.00
2023-08-25T17:35:23.047Z,97946.00
2023-08-25T17:37:50.839Z,97949.00
2023-08-25T17:40:18.346Z,97949.00
2023-08-25T17:42:45.813Z,97958.00
2023-08-25T17:45:13.324Z,97951.00
2023-08-25T17:47:40.878Z,97961.00
2023-08-25T17:50:09.021Z,97969.00
2023-08-25T17:52:36.523Z,97979.00
2023-08-25T17:55:04.521Z,97977.00
2023-08-25T17:57:33.440Z,97966.00
2023-08-25T18:00:01.269Z,97964.00
2023-08-25T18:02:28.806Z,97964.00
2023-08-25T18:04:56.304Z,97958.00
2023-08-25T18:07:23.816Z,97951.00
2023-08-25T18:09:51.564Z,97952.00
2023-08-25T18:12:19.083Z,97939.00
2023-08-25T18:14:46.529Z,97925.00
2023-08-25T18:17:14.055Z,97926.00
2023-08-25T18:19:41.485Z,97920.00
2023-08-25T18:22:09.083Z,97922.00
2023-08-25T18:24:38.246Z,97921.00
2023-08-25T18:27:06.128Z,97916.00
2023-08-25T18:29:33.590Z,97921.00
2023-08-25T18:32:02.729Z,97926.00
2023-08-25T18:34:30.518Z,97911.00
2023-08-25T18:36:58.051Z,97916.00
2023-08-25T18:39:25.698Z,97919.00
2023-08-25T18:41:53.196Z,97925.00
2023-08-25T18:44:20.781Z,97916.00
2023-08-25T18:46:48.248Z,97912.00
2023-08-25T18:49:15.749Z,97919.00
2023-08-25T18:51:45.002Z,97891.00
2023-08-25T18:54:12.525Z,97903.00
2023-08-25T18:56:39.982Z,97905.00
2023-08-25T18:59:07.472Z,97905.00
2023-08-25T19:01:35.289Z,97910.00
2023-08-25T19:04:04.018Z,97914.00
2023-08-25T19:06:31.588Z,97919.00
2023-08-25T19:08:59.029Z,97930.00
2023-08-25T19:11:26.803Z,97936.00
2023-08-25T19:13:54.546Z,97936.00
2023-08-25T19:16:22.176Z,97947.00
2023-08-25T19:18:49.849Z,97952.00
2023-08-25T19:21:17.513Z,97949.00
2023-08-25T19:23:44.990Z,97967.00
2023-08-25T19:26:15.015Z,97968.00
2023-08-25T19:28:43.344Z,97982.00
2023-08-25T19:31:17.373Z,97989.00
2023-08-25T19:33:45.613Z,97996.00
2023-08-25T19:36:15.826Z,97995.00
2023-08-25T19:38:43.823Z,97992.00
2023-08-25T19:41:11.571Z,97996.00
2023-08-25T19:43:41.112Z,97998.00
2023-08-25T19:46:08.617Z,97996.00
2023-08-25T19:48:41.961Z,97992.00
2023-08-25T19:51:09.685Z,97979.00
2023-08-25T19:53:39.433Z,97975.00
2023-08-25T19:56:07.688Z,97991.00
2023-08-25T19:58:35.177Z,97984.00
2023-08-25T20:01:04.141Z,97992.00
2023-08-25T20:03:31.912Z,97995.00
2023-08-25T20:06:06.519Z,97999.00
2023-08-25T20:08:39.389Z,97993.00
2023-08-25T20:11:09.615Z,97989.00
2023-08-25T20:13:37.698Z,97992.00
2023-08-25T20:16:06.265Z,97992.00
2023-08-25T20:18:34.973Z,98007.00
2023-08-25T20:21:02.716Z,98025.00
2023-08-25T20:23:30.210Z,98018.00
2023-08-25T20:25:57.740Z,98007.00
2023-08-25T20:28:25.512Z,98010.00
2023-08-25T20:30:53.508Z,98023.00
2023-08-25T20:33:22.420Z,98021.00
2023-08-25T20:35:51.186Z,98018.00
2023-08-25T20:38:18.689Z,98029.00
2023-08-25T20:40:47.811Z,98034.00
2023-08-25T20:43:15.288Z,98029.00
2023-08-25T20:45:48.681Z,98039.00
2023-08-25T20:48:17.131Z,98057.00
2023-08-25T20:50:50.858Z,98068.00
2023-08-25T20:53:19.022Z,98056.00
2023-08-25T20:55:46.623Z,98054.00
2023-08-25T20:58:14.090Z,98054.00
2023-08-25T21:00:41.512Z,98028.00
2023-08-25T21:03:09.050Z,98039.00
2023-08-25T21:05:36.651Z,98034.00
2023-08-25T21:08:04.447Z,98033.00
2023-08-25T21:10:31.913Z,98029.00
2023-08-25T21:13:00.348Z,98018.00
2023-08-25T21:15:28.420Z,98016.00
2023-08-25T21:17:55.962Z,98004.00
2023-08-25T21:20:26.120Z,98002.00
2023-08-25T21:22:54.903Z,98009.00
2023-08-25T21:25:22.654Z,98009.00
2023-08-25T21:27:50.083Z,98010.00
2023-08-25T21:30:17.733Z,98011.00
2023-08-25T21:32:45.472Z,98010.00
2023-08-25T21:35:12.976Z,98015.00
2023-08-25T21:37:40.529Z,98013.00
2023-08-25T21:40:09.657Z,98006.00
2023-08-25T21:42:37.101Z,98000.00
2023-08-25T21:45:05.175Z,98009.00
2023-08-25T21:47:32.746Z,98009.00
2023-08-25T21:50:03.367Z,98013.00
2023-08-25T21:52:31.173Z,98016.00
2023-08-25T21:54:58.622Z,98030.00
